sensor_id;sensor_type;location;lat;lon;timestamp;P1;durP1;ratioP1;P2;durP2;ratioP2
44102;SDS011;29769;42.178;24.742;2024-01-11T00:00:22;1.48;;;1.35;;
44102;SDS011;29769;42.178;24.742;2024-01-11T00:03:07;2.38;;;2.28;;
44102;SDS011;29769;42.178;24.742;2024-01-11T00:05:52;0.22;;;0.22;;
44102;SDS011;29769;42.178;24.742;2024-01-11T00:08:37;0.40;;;0.40;;
44102;SDS011;29769;42.178;24.742;2024-01-11T00:11:22;0.90;;;0.82;;
44102;SDS011;29769;42.178;24.742;2024-01-11T00:14:07;5.15;;;4.28;;
44102;SDS011;29769;42.178;24.742;2024-01-11T00:16:52;8.95;;;2.20;;
44102;SDS011;29769;42.178;24.742;2024-01-11T00:19:37;1.80;;;1.70;;
44102;SDS011;29769;42.178;24.742;2024-01-11T00:22:22;0.80;;;0.80;;
44102;SDS011;29769;42.178;24.742;2024-01-11T00:25:07;1.27;;;1.27;;
44102;SDS011;29769;42.178;24.742;2024-01-11T00:27:52;1.25;;;1.20;;
44102;SDS011;29769;42.178;24.742;2024-01-11T00:30:37;0.70;;;0.70;;
44102;SDS011;29769;42.178;24.742;2024-01-11T00:33:22;0.32;;;0.32;;
44102;SDS011;29769;42.178;24.742;2024-01-11T00:36:07;0.60;;;0.60;;
44102;SDS011;29769;42.178;24.742;2024-01-11T00:38:52;0.65;;;0.65;;
44102;SDS011;29769;42.178;24.742;2024-01-11T00:41:37;3.50;;;1.73;;
44102;SDS011;29769;42.178;24.742;2024-01-11T00:44:22;0.93;;;0.47;;
44102;SDS011;29769;42.178;24.742;2024-01-11T00:47:07;3.25;;;1.38;;
44102;SDS011;29769;42.178;24.742;2024-01-11T00:49:52;3.42;;;1.67;;
44102;SDS011;29769;42.178;24.742;2024-01-11T00:52:37;1.98;;;1.77;;
44102;SDS011;29769;42.178;24.742;2024-01-11T00:55:23;1.08;;;1.08;;
44102;SDS011;29769;42.178;24.742;2024-01-11T00:58:09;2.35;;;2.15;;
44102;SDS011;29769;42.178;24.742;2024-01-11T01:00:54;2.70;;;2.50;;
44102;SDS011;29769;42.178;24.742;2024-01-11T01:03:39;2.25;;;1.98;;
44102;SDS011;29769;42.178;24.742;2024-01-11T01:06:24;0.70;;;0.70;;
44102;SDS011;29769;42.178;24.742;2024-01-11T01:09:09;0.20;;;0.20;;
44102;SDS011;29769;42.178;24.742;2024-01-11T01:11:54;0.65;;;0.65;;
44102;SDS011;29769;42.178;24.742;2024-01-11T01:14:39;0.95;;;0.75;;
44102;SDS011;29769;42.178;24.742;2024-01-11T01:17:24;0.60;;;0.60;;
44102;SDS011;29769;42.178;24.742;2024-01-11T01:20:09;33.08;;;3.67;;
44102;SDS011;29769;42.178;24.742;2024-01-11T01:22:53;1.00;;;1.00;;
44102;SDS011;29769;42.178;24.742;2024-01-11T01:25:39;1.00;;;1.00;;
44102;SDS011;29769;42.178;24.742;2024-01-11T01:28:23;1.17;;;1.17;;
44102;SDS011;29769;42.178;24.742;2024-01-11T01:31:09;1.23;;;1.15;;
44102;SDS011;29769;42.178;24.742;2024-01-11T01:33:54;2.88;;;2.60;;
44102;SDS011;29769;42.178;24.742;2024-01-11T01:36:39;0.30;;;0.30;;
44102;SDS011;29769;42.178;24.742;2024-01-11T01:39:24;0.95;;;0.38;;
44102;SDS011;29769;42.178;24.742;2024-01-11T01:42:09;3.30;;;2.78;;
44102;SDS011;29769;42.178;24.742;2024-01-11T01:44:54;3.63;;;0.82;;
44102;SDS011;29769;42.178;24.742;2024-01-11T01:47:40;4.07;;;0.93;;
44102;SDS011;29769;42.178;24.742;2024-01-11T01:50:26;0.88;;;0.88;;
44102;SDS011;29769;42.178;24.742;2024-01-11T01:53:11;7.47;;;4.57;;
44102;SDS011;29769;42.178;24.742;2024-01-11T01:55:57;0.10;;;0.10;;
44102;SDS011;29769;42.178;24.742;2024-01-11T01:58:42;1.50;;;1.40;;
44102;SDS011;29769;42.178;24.742;2024-01-11T02:01:27;2.38;;;2.15;;
44102;SDS011;29769;42.178;24.742;2024-01-11T02:04:12;1.23;;;1.20;;
44102;SDS011;29769;42.178;24.742;2024-01-11T02:06:59;0.10;;;0.10;;
44102;SDS011;29769;42.178;24.742;2024-01-11T02:09:44;2.53;;;1.85;;
44102;SDS011;29769;42.178;24.742;2024-01-11T02:12:30;1.00;;;1.00;;
44102;SDS011;29769;42.178;24.742;2024-01-11T02:15:15;3.13;;;2.45;;
44102;SDS011;29769;42.178;24.742;2024-01-11T02:18:00;1.20;;;1.20;;
44102;SDS011;29769;42.178;24.742;2024-01-11T02:20:45;0.30;;;0.30;;
44102;SDS011;29769;42.178;24.742;2024-01-11T02:23:30;2.13;;;2.03;;
44102;SDS011;29769;42.178;24.742;2024-01-11T02:26:15;0.22;;;0.22;;
44102;SDS011;29769;42.178;24.742;2024-01-11T02:29:00;1.40;;;1.30;;
44102;SDS011;29769;42.178;24.742;2024-01-11T02:31:45;0.43;;;0.43;;
44102;SDS011;29769;42.178;24.742;2024-01-11T02:34:30;0.32;;;0.32;;
44102;SDS011;29769;42.178;24.742;2024-01-11T02:37:15;3.67;;;1.23;;
44102;SDS011;29769;42.178;24.742;2024-01-11T02:40:01;1.45;;;1.35;;
44102;SDS011;29769;42.178;24.742;2024-01-11T02:42:46;2.17;;;0.90;;
44102;SDS011;29769;42.178;24.742;2024-01-11T02:45:31;7.78;;;2.20;;
44102;SDS011;29769;42.178;24.742;2024-01-11T02:48:16;0.50;;;0.50;;
44102;SDS011;29769;42.178;24.742;2024-01-11T02:53:46;0.30;;;0.30;;
44102;SDS011;29769;42.178;24.742;2024-01-11T02:56:31;0.25;;;0.25;;
44102;SDS011;29769;42.178;24.742;2024-01-11T02:59:16;1.35;;;1.30;;
44102;SDS011;29769;42.178;24.742;2024-01-11T03:02:01;0.10;;;0.10;;
44102;SDS011;29769;42.178;24.742;2024-01-11T03:04:46;1.05;;;1.05;;
44102;SDS011;29769;42.178;24.742;2024-01-11T03:07:31;0.10;;;0.10;;
44102;SDS011;29769;42.178;24.742;2024-01-11T03:10:17;1.10;;;0.40;;
44102;SDS011;29769;42.178;24.742;2024-01-11T03:13:02;0.10;;;0.10;;
44102;SDS011;29769;42.178;24.742;2024-01-11T03:15:47;1.63;;;1.08;;
44102;SDS011;29769;42.178;24.742;2024-01-11T03:18:32;1.00;;;1.00;;
44102;SDS011;29769;42.178;24.742;2024-01-11T03:21:17;0.28;;;0.28;;
44102;SDS011;29769;42.178;24.742;2024-01-11T03:24:02;0.13;;;0.13;;
44102;SDS011;29769;42.178;24.742;2024-01-11T03:26:48;0.20;;;0.20;;
44102;SDS011;29769;42.178;24.742;2024-01-11T03:29:33;1.40;;;1.13;;
44102;SDS011;29769;42.178;24.742;2024-01-11T03:32:18;0.10;;;0.10;;
44102;SDS011;29769;42.178;24.742;2024-01-11T03:35:03;0.10;;;0.10;;
44102;SDS011;29769;42.178;24.742;2024-01-11T03:37:48;0.00;;;0.00;;
44102;SDS011;29769;42.178;24.742;2024-01-11T03:40:33;1.58;;;1.48;;
44102;SDS011;29769;42.178;24.742;2024-01-11T03:43:18;0.10;;;0.10;;
44102;SDS011;29769;42.178;24.742;2024-01-11T03:46:03;0.75;;;0.75;;
44102;SDS011;29769;42.178;24.742;2024-01-11T03:48:48;0.20;;;0.20;;
44102;SDS011;29769;42.178;24.742;2024-01-11T03:51:34;0.10;;;0.10;;
44102;SDS011;29769;42.178;24.742;2024-01-11T03:54:19;0.43;;;0.43;;
44102;SDS011;29769;42.178;24.742;2024-01-11T03:57:04;0.20;;;0.20;;
44102;SDS011;29769;42.178;24.742;2024-01-11T03:59:50;0.20;;;0.20;;
44102;SDS011;29769;42.178;24.742;2024-01-11T04:02:35;0.65;;;0.65;;
44102;SDS011;29769;42.178;24.742;2024-01-11T04:05:20;0.15;;;0.15;;
44102;SDS011;29769;42.178;24.742;2024-01-11T04:08:05;1.25;;;0.98;;
44102;SDS011;29769;42.178;24.742;2024-01-11T04:10:51;0.13;;;0.13;;
44102;SDS011;29769;42.178;24.742;2024-01-11T04:13:36;0.20;;;0.20;;
44102;SDS011;29769;42.178;24.742;2024-01-11T04:16:23;0.95;;;0.75;;
44102;SDS011;29769;42.178;24.742;2024-01-11T04:19:08;0.10;;;0.10;;
44102;SDS011;29769;42.178;24.742;2024-01-11T04:21:54;0.45;;;0.45;;
44102;SDS011;29769;42.178;24.742;2024-01-11T04:24:41;0.00;;;0.00;;
44102;SDS011;29769;42.178;24.742;2024-01-11T04:27:26;0.00;;;0.00;;
44102;SDS011;29769;42.178;24.742;2024-01-11T04:30:11;0.65;;;0.55;;
44102;SDS011;29769;42.178;24.742;2024-01-11T04:32:56;0.20;;;0.20;;
44102;SDS011;29769;42.178;24.742;2024-01-11T04:35:41;0.10;;;0.10;;
44102;SDS011;29769;42.178;24.742;2024-01-11T04:38:26;0.10;;;0.10;;
44102;SDS011;29769;42.178;24.742;2024-01-11T04:41:11;0.22;;;0.22;;
44102;SDS011;29769;42.178;24.742;2024-01-11T04:43:57;0.40;;;0.40;;
44102;SDS011;29769;42.178;24.742;2024-01-11T04:46:43;0.30;;;0.30;;
44102;SDS011;29769;42.178;24.742;2024-01-11T04:49:27;1.35;;;1.15;;
44102;SDS011;29769;42.178;24.742;2024-01-11T04:52:12;0.40;;;0.40;;
44102;SDS011;29769;42.178;24.742;2024-01-11T04:54:57;1.75;;;1.65;;
44102;SDS011;29769;42.178;24.742;2024-01-11T04:57:42;0.10;;;0.10;;
44102;SDS011;29769;42.178;24.742;2024-01-11T05:00:27;0.10;;;0.10;;
44102;SDS011;29769;42.178;24.742;2024-01-11T05:03:12;0.03;;;0.03;;
44102;SDS011;29769;42.178;24.742;2024-01-11T05:05:58;0.47;;;0.47;;
44102;SDS011;29769;42.178;24.742;2024-01-11T05:08:44;8.07;;;1.25;;
44102;SDS011;29769;42.178;24.742;2024-01-11T05:11:30;0.00;;;0.00;;
44102;SDS011;29769;42.178;24.742;2024-01-11T05:14:15;7.60;;;1.75;;
44102;SDS011;29769;42.178;24.742;2024-01-11T05:16:59;0.10;;;0.10;;
44102;SDS011;29769;42.178;24.742;2024-01-11T05:19:45;1.20;;;1.15;;
44102;SDS011;29769;42.178;24.742;2024-01-11T05:22:29;2.45;;;1.92;;
44102;SDS011;29769;42.178;24.742;2024-01-11T05:25:14;0.17;;;0.17;;
44102;SDS011;29769;42.178;24.742;2024-01-11T05:28:03;9.55;;;1.90;;
44102;SDS011;29769;42.178;24.742;2024-01-11T05:30:48;0.22;;;0.22;;
44102;SDS011;29769;42.178;24.742;2024-01-11T05:33:33;1.15;;;1.05;;
44102;SDS011;29769;42.178;24.742;2024-01-11T05:36:18;0.45;;;0.45;;
44102;SDS011;29769;42.178;24.742;2024-01-11T05:39:03;4.38;;;1.42;;
44102;SDS011;29769;42.178;24.742;2024-01-11T05:41:48;0.28;;;0.28;;
44102;SDS011;29769;42.178;24.742;2024-01-11T05:44:33;0.52;;;0.52;;
44102;SDS011;29769;42.178;24.742;2024-01-11T05:47:18;2.25;;;1.27;;
44102;SDS011;29769;42.178;24.742;2024-01-11T05:50:03;0.25;;;0.25;;
44102;SDS011;29769;42.178;24.742;2024-01-11T05:52:49;0.20;;;0.20;;
44102;SDS011;29769;42.178;24.742;2024-01-11T05:55:34;0.20;;;0.20;;
44102;SDS011;29769;42.178;24.742;2024-01-11T05:58:19;1.15;;;1.13;;
44102;SDS011;29769;42.178;24.742;2024-01-11T06:01:04;0.47;;;0.47;;
44102;SDS011;29769;42.178;24.742;2024-01-11T06:03:49;0.52;;;0.52;;
44102;SDS011;29769;42.178;24.742;2024-01-11T06:06:34;0.73;;;0.73;;
44102;SDS011;29769;42.178;24.742;2024-01-11T06:09:19;0.57;;;0.57;;
44102;SDS011;29769;42.178;24.742;2024-01-11T06:12:04;0.40;;;0.40;;
44102;SDS011;29769;42.178;24.742;2024-01-11T06:14:49;0.40;;;0.40;;
44102;SDS011;29769;42.178;24.742;2024-01-11T06:17:34;2.53;;;1.38;;
44102;SDS011;29769;42.178;24.742;2024-01-11T06:20:19;2.22;;;2.08;;
44102;SDS011;29769;42.178;24.742;2024-01-11T06:23:04;0.90;;;0.50;;
44102;SDS011;29769;42.178;24.742;2024-01-11T06:25:49;0.10;;;0.10;;
44102;SDS011;29769;42.178;24.742;2024-01-11T06:28:34;1.65;;;0.60;;
44102;SDS011;29769;42.178;24.742;2024-01-11T06:31:19;0.80;;;0.80;;
44102;SDS011;29769;42.178;24.742;2024-01-11T06:34:04;0.85;;;0.85;;
44102;SDS011;29769;42.178;24.742;2024-01-11T06:36:49;0.75;;;0.75;;
44102;SDS011;29769;42.178;24.742;2024-01-11T06:39:34;0.70;;;0.70;;
44102;SDS011;29769;42.178;24.742;2024-01-11T06:42:19;1.85;;;0.98;;
44102;SDS011;29769;42.178;24.742;2024-01-11T06:45:04;2.13;;;2.00;;
44102;SDS011;29769;42.178;24.742;2024-01-11T06:47:49;1.38;;;0.63;;
44102;SDS011;29769;42.178;24.742;2024-01-11T06:50:34;0.22;;;0.22;;
44102;SDS011;29769;42.178;24.742;2024-01-11T06:53:19;0.20;;;0.20;;
44102;SDS011;29769;42.178;24.742;2024-01-11T06:56:12;0.20;;;0.20;;
44102;SDS011;29769;42.178;24.742;2024-01-11T06:58:58;0.35;;;0.35;;
44102;SDS011;29769;42.178;24.742;2024-01-11T07:01:43;0.50;;;0.50;;
44102;SDS011;29769;42.178;24.742;2024-01-11T07:04:28;0.35;;;0.35;;
44102;SDS011;29769;42.178;24.742;2024-01-11T07:07:13;0.75;;;0.75;;
44102;SDS011;29769;42.178;24.742;2024-01-11T07:09:59;0.55;;;0.55;;
44102;SDS011;29769;42.178;24.742;2024-01-11T07:12:43;0.40;;;0.40;;
44102;SDS011;29769;42.178;24.742;2024-01-11T07:15:30;1.02;;;1.02;;
44102;SDS011;29769;42.178;24.742;2024-01-11T07:18:15;1.33;;;1.33;;
44102;SDS011;29769;42.178;24.742;2024-01-11T07:21:00;1.58;;;1.58;;
44102;SDS011;29769;42.178;24.742;2024-01-11T07:23:45;0.28;;;0.28;;
44102;SDS011;29769;42.178;24.742;2024-01-11T07:26:30;1.90;;;1.80;;
44102;SDS011;29769;42.178;24.742;2024-01-11T07:29:15;1.17;;;1.17;;
44102;SDS011;29769;42.178;24.742;2024-01-11T07:32:00;3.53;;;3.08;;
44102;SDS011;29769;42.178;24.742;2024-01-11T07:34:45;3.75;;;2.45;;
44102;SDS011;29769;42.178;24.742;2024-01-11T07:37:30;3.47;;;1.88;;
44102;SDS011;29769;42.178;24.742;2024-01-11T07:40:15;3.17;;;2.22;;
44102;SDS011;29769;42.178;24.742;2024-01-11T07:43:00;0.40;;;0.40;;
44102;SDS011;29769;42.178;24.742;2024-01-11T07:45:45;1.95;;;1.77;;
44102;SDS011;29769;42.178;24.742;2024-01-11T07:48:30;0.75;;;0.75;;
44102;SDS011;29769;42.178;24.742;2024-01-11T07:51:15;2.17;;;1.20;;
44102;SDS011;29769;42.178;24.742;2024-01-11T07:54:00;0.68;;;0.65;;
44102;SDS011;29769;42.178;24.742;2024-01-11T07:59:33;0.88;;;0.88;;
44102;SDS011;29769;42.178;24.742;2024-01-11T08:02:20;0.70;;;0.70;;
44102;SDS011;29769;42.178;24.742;2024-01-11T08:05:05;7.50;;;2.70;;
44102;SDS011;29769;42.178;24.742;2024-01-11T08:07:50;2.17;;;2.03;;
44102;SDS011;29769;42.178;24.742;2024-01-11T08:13:20;2.40;;;2.20;;
44102;SDS011;29769;42.178;24.742;2024-01-11T08:16:05;0.75;;;0.75;;
44102;SDS011;29769;42.178;24.742;2024-01-11T08:18:54;6.40;;;1.10;;
44102;SDS011;29769;42.178;24.742;2024-01-11T08:21:39;0.95;;;0.85;;
44102;SDS011;29769;42.178;24.742;2024-01-11T08:24:24;2.10;;;1.83;;
44102;SDS011;29769;42.178;24.742;2024-01-11T08:27:09;2.22;;;2.13;;
44102;SDS011;29769;42.178;24.742;2024-01-11T08:32:39;0.20;;;0.20;;
44102;SDS011;29769;42.178;24.742;2024-01-11T08:35:26;0.73;;;0.73;;
44102;SDS011;29769;42.178;24.742;2024-01-11T08:38:12;1.05;;;1.05;;
44102;SDS011;29769;42.178;24.742;2024-01-11T08:40:57;0.70;;;0.70;;
44102;SDS011;29769;42.178;24.742;2024-01-11T08:43:43;0.68;;;0.68;;
44102;SDS011;29769;42.178;24.742;2024-01-11T08:49:12;3.35;;;2.67;;
44102;SDS011;29769;42.178;24.742;2024-01-11T08:51:57;4.18;;;2.17;;
44102;SDS011;29769;42.178;24.742;2024-01-11T08:54:42;1.35;;;1.35;;
44102;SDS011;29769;42.178;24.742;2024-01-11T08:57:27;1.75;;;1.52;;
44102;SDS011;29769;42.178;24.742;2024-01-11T09:00:12;0.40;;;0.40;;
44102;SDS011;29769;42.178;24.742;2024-01-11T09:03:01;0.80;;;0.80;;
44102;SDS011;29769;42.178;24.742;2024-01-11T09:05:47;3.90;;;1.95;;
44102;SDS011;29769;42.178;24.742;2024-01-11T09:11:16;2.45;;;2.25;;
44102;SDS011;29769;42.178;24.742;2024-01-11T09:14:02;1.38;;;1.35;;
44102;SDS011;29769;42.178;24.742;2024-01-11T09:16:49;0.93;;;0.93;;
44102;SDS011;29769;42.178;24.742;2024-01-11T09:19:34;0.40;;;0.40;;
44102;SDS011;29769;42.178;24.742;2024-01-11T09:25:03;1.30;;;1.20;;
44102;SDS011;29769;42.178;24.742;2024-01-11T09:30:34;0.68;;;0.68;;
44102;SDS011;29769;42.178;24.742;2024-01-11T09:33:19;0.85;;;0.85;;
44102;SDS011;29769;42.178;24.742;2024-01-11T09:36:04;2.10;;;1.70;;
44102;SDS011;29769;42.178;24.742;2024-01-11T09:38:49;2.17;;;2.08;;
44102;SDS011;29769;42.178;24.742;2024-01-11T09:41:35;6.22;;;1.45;;
44102;SDS011;29769;42.178;24.742;2024-01-11T09:44:21;1.65;;;1.02;;
44102;SDS011;29769;42.178;24.742;2024-01-11T09:47:08;2.53;;;2.40;;
44102;SDS011;29769;42.178;24.742;2024-01-11T09:49:54;2.72;;;2.22;;
44102;SDS011;29769;42.178;24.742;2024-01-11T09:52:42;2.05;;;1.85;;
44102;SDS011;29769;42.178;24.742;2024-01-11T09:55:31;1.00;;;1.00;;
44102;SDS011;29769;42.178;24.742;2024-01-11T09:58:16;2.10;;;1.98;;
44102;SDS011;29769;42.178;24.742;2024-01-11T10:01:01;3.97;;;3.10;;
44102;SDS011;29769;42.178;24.742;2024-01-11T10:03:47;3.40;;;2.30;;
44102;SDS011;29769;42.178;24.742;2024-01-11T10:06:32;1.48;;;1.42;;
44102;SDS011;29769;42.178;24.742;2024-01-11T10:09:18;2.38;;;1.85;;
44102;SDS011;29769;42.178;24.742;2024-01-11T10:12:04;1.85;;;1.67;;
44102;SDS011;29769;42.178;24.742;2024-01-11T10:14:49;1.70;;;1.58;;
44102;SDS011;29769;42.178;24.742;2024-01-11T10:17:37;2.08;;;1.75;;
44102;SDS011;29769;42.178;24.742;2024-01-11T10:20:25;19.42;;;4.88;;
44102;SDS011;29769;42.178;24.742;2024-01-11T10:23:11;3.60;;;2.60;;
44102;SDS011;29769;42.178;24.742;2024-01-11T10:25:56;2.40;;;1.95;;
44102;SDS011;29769;42.178;24.742;2024-01-11T10:28:44;1.83;;;1.73;;
44102;SDS011;29769;42.178;24.742;2024-01-11T10:31:30;3.38;;;1.95;;
44102;SDS011;29769;42.178;24.742;2024-01-11T10:34:15;3.47;;;2.25;;
44102;SDS011;29769;42.178;24.742;2024-01-11T10:37:00;2.30;;;2.20;;
44102;SDS011;29769;42.178;24.742;2024-01-11T10:39:45;2.58;;;2.30;;
44102;SDS011;29769;42.178;24.742;2024-01-11T10:42:31;11.18;;;5.57;;
44102;SDS011;29769;42.178;24.742;2024-01-11T10:45:19;11.55;;;3.30;;
44102;SDS011;29769;42.178;24.742;2024-01-11T10:48:14;4.57;;;3.67;;
44102;SDS011;29769;42.178;24.742;2024-01-11T10:51:00;16.77;;;4.28;;
44102;SDS011;29769;42.178;24.742;2024-01-11T10:53:47;2.35;;;2.13;;
44102;SDS011;29769;42.178;24.742;2024-01-11T10:56:33;3.00;;;2.33;;
44102;SDS011;29769;42.178;24.742;2024-01-11T10:59:18;3.15;;;2.63;;
44102;SDS011;29769;42.178;24.742;2024-01-11T11:02:09;2.53;;;2.00;;
44102;SDS011;29769;42.178;24.742;2024-01-11T11:04:56;3.88;;;2.28;;
44102;SDS011;29769;42.178;24.742;2024-01-11T11:07:42;3.63;;;1.92;;
44102;SDS011;29769;42.178;24.742;2024-01-11T11:10:27;6.53;;;3.13;;
44102;SDS011;29769;42.178;24.742;2024-01-11T11:13:14;3.97;;;3.22;;
44102;SDS011;29769;42.178;24.742;2024-01-11T11:16:00;4.07;;;2.13;;
44102;SDS011;29769;42.178;24.742;2024-01-11T11:18:48;4.25;;;2.45;;
44102;SDS011;29769;42.178;24.742;2024-01-11T11:21:42;4.25;;;2.75;;
44102;SDS011;29769;42.178;24.742;2024-01-11T11:24:28;3.58;;;2.47;;
44102;SDS011;29769;42.178;24.742;2024-01-11T11:27:13;4.72;;;2.03;;
44102;SDS011;29769;42.178;24.742;2024-01-11T11:29:59;3.28;;;2.05;;
44102;SDS011;29769;42.178;24.742;2024-01-11T11:32:44;7.55;;;2.10;;
44102;SDS011;29769;42.178;24.742;2024-01-11T11:35:30;2.13;;;1.95;;
44102;SDS011;29769;42.178;24.742;2024-01-11T11:38:18;2.70;;;1.90;;
44102;SDS011;29769;42.178;24.742;2024-01-11T11:41:05;4.35;;;1.85;;
44102;SDS011;29769;42.178;24.742;2024-01-11T11:43:51;2.97;;;1.92;;
44102;SDS011;29769;42.178;24.742;2024-01-11T11:46:36;1.13;;;1.13;;
44102;SDS011;29769;42.178;24.742;2024-01-11T11:49:27;2.33;;;1.83;;
44102;SDS011;29769;42.178;24.742;2024-01-11T11:52:44;1.30;;;1.30;;
44102;SDS011;29769;42.178;24.742;2024-01-11T11:55:29;3.35;;;2.17;;
44102;SDS011;29769;42.178;24.742;2024-01-11T11:58:15;2.40;;;2.05;;
44102;SDS011;29769;42.178;24.742;2024-01-11T12:01:01;2.28;;;1.70;;
44102;SDS011;29769;42.178;24.742;2024-01-11T12:03:47;2.17;;;1.92;;
44102;SDS011;29769;42.178;24.742;2024-01-11T12:06:35;1.70;;;1.60;;
44102;SDS011;29769;42.178;24.742;2024-01-11T12:09:23;9.25;;;1.75;;
44102;SDS011;29769;42.178;24.742;2024-01-11T12:12:08;7.57;;;1.48;;
44102;SDS011;29769;42.178;24.742;2024-01-11T12:14:53;2.67;;;2.10;;
44102;SDS011;29769;42.178;24.742;2024-01-11T12:17:38;2.35;;;2.08;;
44102;SDS011;29769;42.178;24.742;2024-01-11T12:20:28;4.75;;;1.73;;
44102;SDS011;29769;42.178;24.742;2024-01-11T12:23:13;2.75;;;2.40;;
44102;SDS011;29769;42.178;24.742;2024-01-11T12:26:00;1.63;;;1.33;;
44102;SDS011;29769;42.178;24.742;2024-01-11T12:28:47;1.85;;;1.73;;
44102;SDS011;29769;42.178;24.742;2024-01-11T12:31:32;6.07;;;3.92;;
44102;SDS011;29769;42.178;24.742;2024-01-11T12:34:18;3.08;;;2.85;;
44102;SDS011;29769;42.178;24.742;2024-01-11T12:37:05;1.98;;;1.83;;
44102;SDS011;29769;42.178;24.742;2024-01-11T12:39:56;6.93;;;2.70;;
44102;SDS011;29769;42.178;24.742;2024-01-11T12:42:42;2.95;;;2.28;;
44102;SDS011;29769;42.178;24.742;2024-01-11T12:45:28;4.60;;;2.75;;
44102;SDS011;29769;42.178;24.742;2024-01-11T12:48:14;3.58;;;1.90;;
44102;SDS011;29769;42.178;24.742;2024-01-11T12:51:01;5.72;;;3.03;;
44102;SDS011;29769;42.178;24.742;2024-01-11T12:53:47;10.45;;;2.40;;
44102;SDS011;29769;42.178;24.742;2024-01-11T12:56:35;13.15;;;3.22;;
44102;SDS011;29769;42.178;24.742;2024-01-11T12:59:20;5.20;;;2.90;;
44102;SDS011;29769;42.178;24.742;2024-01-11T13:02:10;3.47;;;2.35;;
44102;SDS011;29769;42.178;24.742;2024-01-11T13:04:58;2.88;;;2.25;;
44102;SDS011;29769;42.178;24.742;2024-01-11T13:07:45;16.92;;;5.00;;
44102;SDS011;29769;42.178;24.742;2024-01-11T13:10:31;8.57;;;2.92;;
44102;SDS011;29769;42.178;24.742;2024-01-11T13:13:16;5.13;;;2.97;;
44102;SDS011;29769;42.178;24.742;2024-01-11T13:16:01;2.60;;;1.88;;
44102;SDS011;29769;42.178;24.742;2024-01-11T13:18:58;4.63;;;2.22;;
44102;SDS011;29769;42.178;24.742;2024-01-11T13:21:43;3.92;;;2.47;;
44102;SDS011;29769;42.178;24.742;2024-01-11T13:24:28;2.88;;;2.63;;
44102;SDS011;29769;42.178;24.742;2024-01-11T13:27:13;8.93;;;2.85;;
44102;SDS011;29769;42.178;24.742;2024-01-11T13:29:58;1.55;;;1.13;;
44102;SDS011;29769;42.178;24.742;2024-01-11T13:32:43;2.28;;;2.15;;
44102;SDS011;29769;42.178;24.742;2024-01-11T13:35:28;10.55;;;3.20;;
44102;SDS011;29769;42.178;24.742;2024-01-11T13:38:13;3.45;;;2.45;;
44102;SDS011;29769;42.178;24.742;2024-01-11T13:40:58;3.88;;;2.50;;
44102;SDS011;29769;42.178;24.742;2024-01-11T13:43:43;3.85;;;3.00;;
44102;SDS011;29769;42.178;24.742;2024-01-11T13:46:28;5.60;;;2.33;;
44102;SDS011;29769;42.178;24.742;2024-01-11T13:49:13;12.35;;;5.43;;
44102;SDS011;29769;42.178;24.742;2024-01-11T13:51:58;12.52;;;3.80;;
44102;SDS011;29769;42.178;24.742;2024-01-11T13:54:43;3.53;;;2.03;;
44102;SDS011;29769;42.178;24.742;2024-01-11T13:57:28;3.03;;;2.63;;
44102;SDS011;29769;42.178;24.742;2024-01-11T14:00:13;2.65;;;1.83;;
44102;SDS011;29769;42.178;24.742;2024-01-11T14:02:58;1.33;;;1.23;;
44102;SDS011;29769;42.178;24.742;2024-01-11T14:05:44;5.80;;;1.92;;
44102;SDS011;29769;42.178;24.742;2024-01-11T14:08:29;4.07;;;3.63;;
44102;SDS011;29769;42.178;24.742;2024-01-11T14:11:14;10.27;;;2.67;;
44102;SDS011;29769;42.178;24.742;2024-01-11T14:13:59;1.90;;;1.77;;
44102;SDS011;29769;42.178;24.742;2024-01-11T14:16:44;2.70;;;2.30;;
44102;SDS011;29769;42.178;24.742;2024-01-11T14:19:30;2.30;;;2.00;;
44102;SDS011;29769;42.178;24.742;2024-01-11T14:24:59;13.40;;;2.20;;
44102;SDS011;29769;42.178;24.742;2024-01-11T14:27:44;3.13;;;1.95;;
44102;SDS011;29769;42.178;24.742;2024-01-11T14:30:29;3.67;;;2.60;;
44102;SDS011;29769;42.178;24.742;2024-01-11T14:35:59;5.72;;;3.13;;
44102;SDS011;29769;42.178;24.742;2024-01-11T14:38:45;12.65;;;4.65;;
44102;SDS011;29769;42.178;24.742;2024-01-11T14:41:30;10.13;;;4.80;;
44102;SDS011;29769;42.178;24.742;2024-01-11T14:44:16;4.70;;;4.13;;
44102;SDS011;29769;42.178;24.742;2024-01-11T14:49:46;7.60;;;3.33;;
44102;SDS011;29769;42.178;24.742;2024-01-11T14:52:31;6.68;;;3.13;;
44102;SDS011;29769;42.178;24.742;2024-01-11T14:55:16;5.68;;;4.13;;
44102;SDS011;29769;42.178;24.742;2024-01-11T15:00:45;3.20;;;2.58;;
44102;SDS011;29769;42.178;24.742;2024-01-11T15:03:31;3.40;;;2.33;;
44102;SDS011;29769;42.178;24.742;2024-01-11T15:06:15;3.03;;;2.83;;
44102;SDS011;29769;42.178;24.742;2024-01-11T15:09:00;12.45;;;3.25;;
44102;SDS011;29769;42.178;24.742;2024-01-11T15:11:45;2.13;;;2.03;;
44102;SDS011;29769;42.178;24.742;2024-01-11T15:14:30;1.95;;;1.83;;
44102;SDS011;29769;42.178;24.742;2024-01-11T15:17:15;2.08;;;1.98;;
44102;SDS011;29769;42.178;24.742;2024-01-11T15:20:00;7.18;;;3.28;;
44102;SDS011;29769;42.178;24.742;2024-01-11T15:22:46;2.33;;;1.70;;
44102;SDS011;29769;42.178;24.742;2024-01-11T15:25:31;10.32;;;2.42;;
44102;SDS011;29769;42.178;24.742;2024-01-11T15:28:16;2.13;;;2.03;;
44102;SDS011;29769;42.178;24.742;2024-01-11T15:31:02;7.30;;;4.10;;
44102;SDS011;29769;42.178;24.742;2024-01-11T15:33:47;3.33;;;2.75;;
44102;SDS011;29769;42.178;24.742;2024-01-11T15:36:31;4.43;;;3.58;;
44102;SDS011;29769;42.178;24.742;2024-01-11T15:39:16;7.03;;;4.38;;
44102;SDS011;29769;42.178;24.742;2024-01-11T15:42:01;9.63;;;4.60;;
44102;SDS011;29769;42.178;24.742;2024-01-11T15:44:47;5.55;;;3.20;;
44102;SDS011;29769;42.178;24.742;2024-01-11T15:47:32;6.97;;;3.45;;
44102;SDS011;29769;42.178;24.742;2024-01-11T15:50:18;11.25;;;4.70;;
44102;SDS011;29769;42.178;24.742;2024-01-11T15:53:03;1.50;;;1.40;;
44102;SDS011;29769;42.178;24.742;2024-01-11T15:55:48;2.15;;;2.05;;
44102;SDS011;29769;42.178;24.742;2024-01-11T15:58:33;2.47;;;2.35;;
44102;SDS011;29769;42.178;24.742;2024-01-11T16:04:03;9.55;;;3.38;;
44102;SDS011;29769;42.178;24.742;2024-01-11T16:06:48;7.35;;;3.05;;
44102;SDS011;29769;42.178;24.742;2024-01-11T16:09:33;3.38;;;3.17;;
44102;SDS011;29769;42.178;24.742;2024-01-11T16:12:18;5.15;;;3.80;;
44102;SDS011;29769;42.178;24.742;2024-01-11T16:15:03;2.72;;;2.53;;
44102;SDS011;29769;42.178;24.742;2024-01-11T16:17:49;3.75;;;3.45;;
44102;SDS011;29769;42.178;24.742;2024-01-11T16:20:34;6.43;;;5.85;;
44102;SDS011;29769;42.178;24.742;2024-01-11T16:23:20;6.60;;;5.38;;
44102;SDS011;29769;42.178;24.742;2024-01-11T16:26:08;9.23;;;7.10;;
44102;SDS011;29769;42.178;24.742;2024-01-11T16:28:53;9.25;;;4.80;;
44102;SDS011;29769;42.178;24.742;2024-01-11T16:31:38;2.60;;;2.42;;
44102;SDS011;29769;42.178;24.742;2024-01-11T16:34:24;2.42;;;2.33;;
44102;SDS011;29769;42.178;24.742;2024-01-11T16:37:08;3.00;;;2.80;;
44102;SDS011;29769;42.178;24.742;2024-01-11T16:39:53;3.88;;;2.40;;
44102;SDS011;29769;42.178;24.742;2024-01-11T16:42:38;3.03;;;2.70;;
44102;SDS011;29769;42.178;24.742;2024-01-11T16:45:23;2.25;;;2.15;;
44102;SDS011;29769;42.178;24.742;2024-01-11T16:48:08;33.53;;;4.68;;
44102;SDS011;29769;42.178;24.742;2024-01-11T16:50:55;18.98;;;4.20;;
44102;SDS011;29769;42.178;24.742;2024-01-11T16:53:43;3.63;;;3.20;;
44102;SDS011;29769;42.178;24.742;2024-01-11T16:56:28;7.72;;;5.72;;